Time;durP1;ratioP1;P1;durP2;ratioP2;P2;SDS_P1;SDS_P2;PMS_P1;PMS_P2;Temp;Humidity;BMP_temperature;BMP_pressure;BME280_temperature;BME280_humidity;BME280_pressure;Samples;Min_cycle;Max_cycle;Signal;HPM_P1;HPM_P2
2021/07/06 00:00:54;;;;;;;14.90;13.70;;;18.90;99.90;;;;;;5021462;28;20837;-70
2021/07/06 00:03:22;;;;;;;14.20;13.20;;;18.90;99.90;;;;;;5024711;28;20957;-67
2021/07/06 00:05:49;;;;;;;14.87;13.70;;;18.80;99.90;;;;;;5023269;28;21002;-68
2021/07/06 00:08:17;;;;;;;14.43;13.53;;;18.90;99.90;;;;;;5028357;28;20508;-68
2021/07/06 00:10:44;;;;;;;14.77;13.63;;;18.90;99.90;;;;;;5019305;28;20465;-69
2021/07/06 00:13:12;;;;;;;15.10;13.90;;;18.90;99.90;;;;;;5020099;28;20468;-67
2021/07/06 00:15:39;;;;;;;14.80;13.37;;;18.90;99.90;;;;;;5023255;28;20468;-69
2021/07/06 00:18:08;;;;;;;14.97;13.50;;;19.00;99.90;;;;;;5020817;28;20469;-68
2021/07/06 00:20:36;;;;;;;15.50;14.40;;;19.00;99.90;;;;;;5023576;28;20959;-71
2021/07/06 00:23:04;;;;;;;15.27;13.77;;;19.00;99.90;;;;;;5020430;28;20462;-70
2021/07/06 00:25:32;;;;;;;17.20;13.37;;;19.00;99.90;;;;;;5026812;28;20826;-67
2021/07/06 00:28:00;;;;;;;15.13;13.93;;;19.00;99.90;;;;;;5024694;28;21033;-67
2021/07/06 00:30:27;;;;;;;16.13;14.80;;;19.10;99.90;;;;;;5023080;28;20484;-69
2021/07/06 00:32:54;;;;;;;16.60;15.70;;;19.00;99.90;;;;;;5022410;28;20503;-71
2021/07/06 00:35:24;;;;;;;19.40;16.67;;;18.90;99.90;;;;;;5027895;28;20456;-68
2021/07/06 00:37:51;;;;;;;19.23;17.67;;;18.70;99.90;;;;;;5022442;28;20971;-68
2021/07/06 00:40:20;;;;;;;20.50;18.93;;;18.60;99.90;;;;;;5027087;28;20499;-68
2021/07/06 00:42:49;;;;;;;20.43;19.03;;;18.50;99.90;;;;;;5024689;28;20461;-68
2021/07/06 00:45:18;;;;;;;20.50;19.00;;;18.30;99.90;;;;;;5025545;28;20940;-68
2021/07/06 00:47:47;;;;;;;20.10;18.60;;;18.30;99.90;;;;;;5027439;28;20491;-68
2021/07/06 00:50:16;;;;;;;21.03;19.23;;;18.20;99.90;;;;;;5021756;28;20468;-68
2021/07/06 00:52:48;;;;;;;23.53;21.17;;;18.10;99.90;;;;;;5022147;28;20460;-67
2021/07/06 00:55:15;;;;;;;23.07;21.23;;;18.00;99.90;;;;;;5026456;28;20829;-67
2021/07/06 00:57:43;;;;;;;24.07;19.93;;;18.00;99.90;;;;;;5026718;28;21191;-68
2021/07/06 01:00:12;;;;;;;21.33;19.83;;;18.00;99.90;;;;;;5028989;28;20452;-68
2021/07/06 01:02:40;;;;;;;22.10;20.07;;;18.00;99.90;;;;;;5025589;28;20843;-68
2021/07/06 01:05:10;;;;;;;22.37;20.10;;;18.00;99.90;;;;;;5024073;28;20463;-69
2021/07/06 01:07:39;;;;;;;20.50;19.20;;;17.90;99.90;;;;;;5025979;28;20920;-68
2021/07/06 01:10:10;;;;;;;22.00;20.40;;;17.80;99.90;;;;;;5025719;28;20452;-71
2021/07/06 01:12:37;;;;;;;21.63;19.30;;;17.80;99.90;;;;;;5025764;28;20460;-68
2021/07/06 01:15:07;;;;;;;21.20;19.20;;;17.80;99.90;;;;;;5028475;28;20464;-68
2021/07/06 01:17:34;;;;;;;22.33;20.50;;;17.80;99.90;;;;;;5027366;28;20457;-71
2021/07/06 01:20:08;;;;;;;20.17;18.47;;;17.80;99.90;;;;;;5025376;28;20547;-69
2021/07/06 01:22:37;;;;;;;20.80;18.70;;;17.70;99.90;;;;;;5023288;28;20469;-72
2021/07/06 01:25:09;;;;;;;19.77;18.07;;;17.70;99.90;;;;;;5024189;28;21332;-69
2021/07/06 01:27:37;;;;;;;21.93;18.50;;;17.70;99.90;;;;;;5026172;28;20468;-72
2021/07/06 01:30:05;;;;;;;21.07;18.53;;;17.70;99.90;;;;;;5024832;28;20465;-69
2021/07/06 01:32:32;;;;;;;19.60;17.50;;;17.70;99.90;;;;;;5027259;28;20475;-72
2021/07/06 01:34:59;;;;;;;19.77;17.60;;;17.70;99.90;;;;;;5025495;28;20464;-69
2021/07/06 01:37:26;;;;;;;29.03;18.23;;;17.70;99.90;;;;;;5026261;28;20465;-69
2021/07/06 01:39:54;;;;;;;20.23;18.37;;;17.70;99.90;;;;;;5019770;28;20485;-69
2021/07/06 01:42:23;;;;;;;24.03;19.37;;;17.60;99.90;;;;;;5024945;28;20468;-69
2021/07/06 01:45:05;;;;;;;19.80;17.97;;;17.60;99.90;;;;;;5027941;28;20506;-71
2021/07/06 01:47:35;;;;;;;19.30;17.70;;;17.60;99.90;;;;;;5021540;28;20468;-70
2021/07/06 01:50:05;;;;;;;19.47;17.80;;;17.60;99.90;;;;;;5022990;28;20488;-69
2021/07/06 01:52:33;;;;;;;21.90;17.70;;;17.60;99.90;;;;;;5026740;28;20469;-69
2021/07/06 01:55:01;;;;;;;19.10;17.70;;;17.50;99.90;;;;;;5025224;28;20578;-71
2021/07/06 01:57:29;;;;;;;19.83;17.90;;;17.50;99.90;;;;;;5027708;28;20827;-71
2021/07/06 01:59:55;;;;;;;20.10;18.00;;;17.50;99.90;;;;;;5017766;28;21208;-70
2021/07/06 02:02:22;;;;;;;19.37;17.87;;;17.40;99.90;;;;;;5021178;28;20949;-69
2021/07/06 02:04:51;;;;;;;19.23;17.43;;;17.50;99.90;;;;;;5026606;28;20469;-72
2021/07/06 02:07:18;;;;;;;19.83;17.77;;;17.50;99.90;;;;;;5024046;28;20631;-70
2021/07/06 02:09:45;;;;;;;20.00;17.97;;;17.50;99.90;;;;;;5021157;28;20499;-69
2021/07/06 02:12:13;;;;;;;22.00;17.60;;;17.40;99.90;;;;;;5024078;28;20473;-69
2021/07/06 02:14:40;;;;;;;18.30;16.90;;;17.40;99.90;;;;;;5027193;28;20466;-69
2021/07/06 02:17:07;;;;;;;18.83;17.13;;;17.40;99.90;;;;;;5022640;28;20467;-69
2021/07/06 02:19:34;;;;;;;19.63;17.30;;;17.40;99.90;;;;;;5017382;28;20479;-69
2021/07/06 02:22:01;;;;;;;18.60;17.30;;;17.40;99.90;;;;;;5024864;28;20468;-69
2021/07/06 02:24:28;;;;;;;19.10;17.47;;;17.40;99.90;;;;;;5018768;28;20472;-71
2021/07/06 02:26:55;;;;;;;19.60;17.67;;;17.30;99.90;;;;;;5028128;28;20971;-68
2021/07/06 02:29:23;;;;;;;17.80;16.60;;;17.30;99.90;;;;;;5022777;28;20507;-69
2021/07/06 02:31:51;;;;;;;20.27;18.40;;;17.30;99.90;;;;;;5024081;28;20551;-69
2021/07/06 02:34:18;;;;;;;19.77;17.10;;;17.30;99.90;;;;;;5024720;28;20501;-71
2021/07/06 02:36:48;;;;;;;17.63;16.40;;;17.30;99.90;;;;;;5023768;28;20465;-69
2021/07/06 02:39:16;;;;;;;18.90;17.23;;;17.30;99.90;;;;;;5021256;28;20468;-69
2021/07/06 02:41:42;;;;;;;26.53;17.40;;;17.30;99.90;;;;;;5018022;28;20473;-69
2021/07/06 02:44:10;;;;;;;19.23;17.00;;;17.30;99.90;;;;;;5022998;28;20868;-71
2021/07/06 02:46:38;;;;;;;28.83;16.40;;;17.30;99.90;;;;;;5020287;28;20469;-69
2021/07/06 02:49:07;;;;;;;22.07;16.63;;;17.30;99.90;;;;;;5019534;28;20858;-69
2021/07/06 02:51:35;;;;;;;18.03;16.60;;;17.30;99.90;;;;;;5017375;28;20491;-69
2021/07/06 02:54:04;;;;;;;20.67;17.07;;;17.30;99.90;;;;;;5023701;28;21013;-71
2021/07/06 02:56:31;;;;;;;29.73;16.47;;;17.30;99.90;;;;;;5026718;28;20934;-69
2021/07/06 02:58:58;;;;;;;18.00;16.23;;;17.30;99.90;;;;;;5023371;28;20467;-68
2021/07/06 03:01:25;;;;;;;21.33;17.10;;;17.30;99.90;;;;;;5017219;28;20464;-71
2021/07/06 03:03:54;;;;;;;30.93;16.90;;;17.30;99.90;;;;;;5023016;28;20472;-69
2021/07/06 03:06:27;;;;;;;18.97;17.13;;;17.30;99.90;;;;;;5017305;28;20504;-69
2021/07/06 03:08:56;;;;;;;18.37;16.47;;;17.30;99.90;;;;;;5023599;28;20891;-71
2021/07/06 03:11:23;;;;;;;18.03;16.53;;;17.30;99.90;;;;;;5020953;28;20462;-70
2021/07/06 03:13:50;;;;;;;31.67;16.83;;;17.20;99.90;;;;;;5025073;28;20468;-69
2021/07/06 03:16:17;;;;;;;18.37;16.53;;;17.20;99.90;;;;;;5021959;28;20468;-69
2021/07/06 03:18:44;;;;;;;19.93;17.30;;;17.20;99.90;;;;;;5021978;28;21344;-73
2021/07/06 03:21:13;;;;;;;19.13;17.17;;;17.20;99.90;;;;;;5023448;28;20718;-72
2021/07/06 03:23:41;;;;;;;19.30;17.00;;;17.10;99.90;;;;;;5018690;28;20469;-69
2021/07/06 03:26:08;;;;;;;17.57;16.27;;;17.20;99.90;;;;;;5024577;28;20461;-72
2021/07/06 03:28:35;;;;;;;20.07;16.57;;;17.20;99.90;;;;;;5019619;28;20489;-71
2021/07/06 03:31:03;;;;;;;21.47;17.33;;;17.20;99.90;;;;;;5021120;28;21028;-69
2021/07/06 03:33:30;;;;;;;18.30;16.60;;;17.20;99.90;;;;;;5023369;28;20468;-69
2021/07/06 03:35:57;;;;;;;16.87;15.47;;;17.20;99.90;;;;;;5023466;28;20468;-71
2021/07/06 03:38:25;;;;;;;19.30;15.97;;;17.20;99.90;;;;;;5023107;28;20564;-70
2021/07/06 03:40:52;;;;;;;16.50;15.20;;;17.30;99.90;;;;;;5020927;28;20503;-68
2021/07/06 03:43:19;;;;;;;17.13;15.30;;;17.30;99.90;;;;;;5021381;28;20471;-69
2021/07/06 03:45:46;;;;;;;16.93;14.53;;;17.40;99.90;;;;;;5022329;28;20486;-68
2021/07/06 03:48:13;;;;;;;16.03;14.90;;;17.40;99.90;;;;;;5021836;28;20464;-68
2021/07/06 03:50:40;;;;;;;24.00;15.20;;;17.40;99.90;;;;;;5019813;28;20501;-72
2021/07/06 03:53:07;;;;;;;20.27;14.30;;;17.40;99.90;;;;;;5018707;28;20460;-71
2021/07/06 03:55:36;;;;;;;21.63;14.47;;;17.50;99.90;;;;;;5021932;28;20496;-69
2021/07/06 03:58:02;;;;;;;15.87;14.40;;;17.50;99.90;;;;;;5023251;28;20463;-68
2021/07/06 04:00:31;;;;;;;15.63;14.10;;;17.50;99.90;;;;;;5022344;28;20465;-68
2021/07/06 04:02:58;;;;;;;17.77;15.80;;;17.60;99.90;;;;;;5018939;28;20468;-69
2021/07/06 04:05:26;;;;;;;15.90;14.33;;;17.60;99.90;;;;;;5025112;28;20464;-68
2021/07/06 04:07:53;;;;;;;17.87;13.70;;;17.60;99.90;;;;;;5017950;28;20472;-70
2021/07/06 04:10:21;;;;;;;15.93;14.60;;;17.60;99.90;;;;;;5025227;28;20490;-69
2021/07/06 04:12:49;;;;;;;15.33;14.20;;;17.60;99.90;;;;;;5017959;28;20465;-68
2021/07/06 04:15:17;;;;;;;19.47;14.97;;;17.60;99.90;;;;;;5019059;28;20882;-68
2021/07/06 04:17:46;;;;;;;16.00;14.70;;;17.60;99.90;;;;;;5019387;28;20484;-68
2021/07/06 04:20:15;;;;;;;16.97;15.33;;;17.70;99.90;;;;;;5023097;28;20469;-68
2021/07/06 04:22:42;;;;;;;15.50;14.50;;;17.70;99.90;;;;;;5017822;28;20974;-68
2021/07/06 04:25:12;;;;;;;16.73;15.63;;;17.70;99.90;;;;;;5020041;28;21205;-68
2021/07/06 04:27:39;;;;;;;19.17;16.13;;;17.70;99.90;;;;;;5014405;28;20813;-68
2021/07/06 04:30:09;;;;;;;22.03;16.20;;;17.60;99.90;;;;;;5019568;28;20488;-70
2021/07/06 04:32:37;;;;;;;16.90;15.57;;;17.70;99.90;;;;;;5022674;28;20463;-68
2021/07/06 04:35:05;;;;;;;17.37;15.70;;;17.70;99.90;;;;;;5026692;28;20828;-70
2021/07/06 04:37:32;;;;;;;17.20;16.00;;;17.70;99.90;;;;;;5024344;28;20830;-68
2021/07/06 04:40:00;;;;;;;17.37;15.80;;;17.70;99.90;;;;;;5019764;28;20532;-68
2021/07/06 04:42:28;;;;;;;19.23;16.93;;;17.70;99.90;;;;;;5015912;28;20870;-68
2021/07/06 04:44:55;;;;;;;16.13;15.07;;;17.70;99.90;;;;;;5019389;28;20478;-69
2021/07/06 04:47:23;;;;;;;16.13;14.97;;;17.70;99.90;;;;;;5021353;28;20735;-72
2021/07/06 04:49:50;;;;;;;16.97;15.17;;;17.80;99.90;;;;;;5020713;28;20500;-69
2021/07/06 04:52:19;;;;;;;14.63;13.50;;;17.80;99.90;;;;;;5017405;28;20777;-69
2021/07/06 04:54:45;;;;;;;17.40;16.20;;;17.80;99.90;;;;;;5014299;28;20461;-68
2021/07/06 04:57:13;;;;;;;20.93;19.43;;;17.80;99.90;;;;;;5019770;28;20994;-70
2021/07/06 04:59:40;;;;;;;20.43;18.70;;;17.80;99.90;;;;;;5023007;28;20843;-68
2021/07/06 05:02:07;;;;;;;19.50;18.20;;;17.70;99.90;;;;;;5014560;28;20839;-69
2021/07/06 05:04:35;;;;;;;19.90;18.47;;;17.60;99.90;;;;;;5012912;28;20476;-69
2021/07/06 05:07:03;;;;;;;20.00;18.17;;;17.60;99.90;;;;;;5018688;28;20468;-68
2021/07/06 05:09:32;;;;;;;20.03;18.30;;;17.50;99.90;;;;;;5018085;28;20535;-70
2021/07/06 05:11:59;;;;;;;18.03;17.03;;;17.50;99.90;;;;;;5019286;28;20823;-69
2021/07/06 05:14:25;;;;;;;18.97;17.57;;;17.50;99.90;;;;;;5024602;28;20456;-72
2021/07/06 05:16:52;;;;;;;19.50;17.73;;;17.50;99.90;;;;;;5020814;28;20470;-72
2021/07/06 05:19:19;;;;;;;20.10;17.63;;;17.60;99.90;;;;;;5016613;28;20768;-71
2021/07/06 05:21:47;;;;;;;24.67;18.00;;;17.50;99.90;;;;;;5019906;28;20461;-69
2021/07/06 05:24:14;;;;;;;19.47;17.60;;;17.60;99.90;;;;;;5019131;28;20472;-71
2021/07/06 05:26:41;;;;;;;18.40;16.87;;;17.60;99.90;;;;;;5026658;28;20468;-70
2021/07/06 05:29:09;;;;;;;15.10;14.40;;;17.90;99.90;;;;;;5022403;28;20487;-68
2021/07/06 05:31:36;;;;;;;17.70;16.70;;;18.20;99.90;;;;;;5027912;28;20496;-70
2021/07/06 05:34:03;;;;;;;17.80;16.80;;;18.20;99.90;;;;;;5026971;28;20469;-70
2021/07/06 05:36:30;;;;;;;17.30;16.10;;;18.30;99.90;;;;;;5023769;28;20479;-71
2021/07/06 05:38:59;;;;;;;16.70;15.70;;;18.40;99.90;;;;;;5024157;28;21049;-72
2021/07/06 05:41:26;;;;;;;17.77;16.50;;;18.40;99.90;;;;;;5020175;28;20483;-69
2021/07/06 05:43:53;;;;;;;17.03;16.03;;;18.40;99.90;;;;;;5024654;28;20453;-69
2021/07/06 05:46:20;;;;;;;18.10;16.80;;;18.40;99.90;;;;;;5028195;28;20486;-70
2021/07/06 05:48:47;;;;;;;17.60;16.70;;;18.40;99.90;;;;;;5022141;28;20465;-69
2021/07/06 05:51:13;;;;;;;18.57;17.50;;;18.40;99.90;;;;;;5025914;28;21005;-68
2021/07/06 05:53:41;;;;;;;16.60;15.70;;;18.40;99.90;;;;;;5020346;28;20826;-68
2021/07/06 05:56:09;;;;;;;16.20;15.40;;;18.40;99.90;;;;;;5022701;28;20823;-69
2021/07/06 05:58:36;;;;;;;16.23;15.43;;;18.30;99.90;;;;;;5026574;28;20464;-70
2021/07/06 06:01:03;;;;;;;15.73;14.93;;;18.30;99.90;;;;;;5022352;28;20962;-69
2021/07/06 06:03:30;;;;;;;15.40;14.60;;;18.20;99.90;;;;;;5021030;28;20559;-69
2021/07/06 06:05:57;;;;;;;15.60;14.80;;;18.30;99.90;;;;;;5021746;28;20591;-68
2021/07/06 06:08:24;;;;;;;15.60;14.80;;;18.30;99.90;;;;;;5024461;28;20684;-70
2021/07/06 06:10:51;;;;;;;15.00;14.30;;;18.20;99.90;;;;;;5020740;28;20512;-69
2021/07/06 06:13:19;;;;;;;14.50;13.80;;;18.30;99.90;;;;;;5018814;28;20463;-69
2021/07/06 06:15:46;;;;;;;14.40;13.70;;;18.30;99.90;;;;;;5018121;28;20456;-69
2021/07/06 06:18:14;;;;;;;14.40;13.70;;;18.40;99.90;;;;;;5014452;28;20464;-69
2021/07/06 06:20:40;;;;;;;14.97;14.27;;;18.40;99.90;;;;;;5018354;28;20460;-68
2021/07/06 06:23:07;;;;;;;15.93;15.13;;;18.50;99.90;;;;;;5020253;28;20483;-67
2021/07/06 06:25:34;;;;;;;16.70;15.80;;;18.50;99.90;;;;;;5017268;28;20556;-68
2021/07/06 06:28:02;;;;;;;16.73;15.83;;;18.50;99.90;;;;;;5013870;28;20866;-68
2021/07/06 06:30:30;;;;;;;17.90;16.90;;;18.50;99.90;;;;;;5017156;28;20874;-71
2021/07/06 06:32:57;;;;;;;18.13;17.13;;;18.50;99.90;;;;;;5019350;28;20918;-68
2021/07/06 06:35:24;;;;;;;18.00;17.00;;;18.50;99.90;;;;;;5020926;28;20470;-69
2021/07/06 06:37:52;;;;;;;18.07;17.07;;;18.50;99.90;;;;;;5016278;28;21129;-70
2021/07/06 06:40:19;;;;;;;18.20;17.20;;;18.50;99.90;;;;;;5014862;28;20565;-68
2021/07/06 06:42:47;;;;;;;17.50;16.57;;;18.50;99.90;;;;;;5019382;28;20457;-69
2021/07/06 06:45:17;;;;;;;18.57;17.33;;;18.40;99.90;;;;;;5016080;28;20588;-68
2021/07/06 06:47:45;;;;;;;17.93;16.93;;;18.40;99.90;;;;;;5018264;28;20461;-69
2021/07/06 06:50:14;;;;;;;17.07;16.17;;;18.60;99.90;;;;;;5021066;28;20499;-68
2021/07/06 06:52:42;;;;;;;16.90;15.63;;;18.60;99.90;;;;;;5022330;28;20473;-68
2021/07/06 06:55:10;;;;;;;16.80;15.70;;;18.70;99.90;;;;;;5023399;28;20456;-69
2021/07/06 06:57:37;;;;;;;16.63;15.27;;;18.80;99.90;;;;;;5025440;28;20466;-69
2021/07/06 07:00:06;;;;;;;15.90;15.07;;;18.90;99.90;;;;;;5021855;28;20990;-70
2021/07/06 07:02:33;;;;;;;16.60;15.70;;;19.00;99.90;;;;;;5019542;28;20980;-69
2021/07/06 07:05:02;;;;;;;17.60;16.30;;;19.10;99.90;;;;;;5016640;28;22526;-69
2021/07/06 07:07:30;;;;;;;16.23;15.33;;;19.10;99.90;;;;;;5027632;28;20460;-69
2021/07/06 07:09:58;;;;;;;16.70;15.50;;;19.20;99.90;;;;;;5025782;28;20472;-69
2021/07/06 07:12:25;;;;;;;16.47;14.97;;;19.20;99.90;;;;;;5024155;28;20461;-70
2021/07/06 07:14:52;;;;;;;16.40;15.40;;;19.10;99.90;;;;;;5022035;28;20469;-71
2021/07/06 07:17:19;;;;;;;16.17;15.13;;;19.20;99.90;;;;;;5024683;28;20537;-69
2021/07/06 07:19:47;;;;;;;16.53;15.53;;;19.20;99.90;;;;;;5022020;28;20566;-69
2021/07/06 07:22:16;;;;;;;15.20;14.30;;;19.30;99.90;;;;;;5020248;28;20465;-69
2021/07/06 07:24:43;;;;;;;16.03;15.23;;;19.40;99.90;;;;;;5024241;28;20465;-69
2021/07/06 07:27:10;;;;;;;16.93;15.30;;;19.50;99.90;;;;;;5024000;28;20468;-68
2021/07/06 07:29:38;;;;;;;16.57;15.43;;;19.50;99.90;;;;;;5022383;28;20465;-69
2021/07/06 07:32:06;;;;;;;16.67;15.03;;;19.60;99.90;;;;;;5023354;28;20539;-69
2021/07/06 07:34:34;;;;;;;16.27;15.07;;;19.70;99.90;;;;;;5020035;28;20460;-69
2021/07/06 07:37:02;;;;;;;15.37;14.57;;;19.60;99.90;;;;;;5019168;28;20549;-69
2021/07/06 07:39:33;;;;;;;14.83;14.03;;;19.60;99.90;;;;;;5019756;28;20484;-72
2021/07/06 07:42:03;;;;;;;14.63;13.80;;;19.80;99.90;;;;;;5020528;28;20479;-69
2021/07/06 07:44:30;;;;;;;15.53;14.73;;;19.90;99.90;;;;;;5020371;28;20547;-71
2021/07/06 07:46:57;;;;;;;15.50;14.70;;;20.00;99.90;;;;;;5019295;28;20470;-69
2021/07/06 07:49:24;;;;;;;15.30;14.50;;;19.90;99.90;;;;;;5020847;28;20738;-71
2021/07/06 07:51:51;;;;;;;16.07;15.27;;;20.00;99.90;;;;;;5023857;28;20492;-71
2021/07/06 07:54:18;;;;;;;15.70;14.90;;;20.00;99.90;;;;;;5021847;28;20461;-69
2021/07/06 07:56:47;;;;;;;16.10;15.07;;;20.00;99.90;;;;;;5016525;28;20465;-71
2021/07/06 07:59:14;;;;;;;16.07;15.27;;;20.10;99.90;;;;;;5021860;28;20460;-71
2021/07/06 08:01:41;;;;;;;16.07;15.27;;;20.20;99.90;;;;;;5020907;28;20460;-72
2021/07/06 08:04:08;;;;;;;16.13;15.13;;;20.20;99.90;;;;;;5021308;28;20470;-69
2021/07/06 08:06:35;;;;;;;15.83;15.03;;;20.40;99.90;;;;;;5020080;28;20465;-69
2021/07/06 08:09:02;;;;;;;16.30;15.40;;;20.40;99.90;;;;;;5019359;28;20959;-69
2021/07/06 08:11:29;;;;;;;16.30;15.30;;;20.40;99.90;;;;;;5019363;28;20485;-71
2021/07/06 08:13:58;;;;;;;16.20;15.40;;;20.40;99.90;;;;;;5021764;28;20465;-70
2021/07/06 08:16:25;;;;;;;15.97;14.90;;;20.50;99.90;;;;;;5022835;28;21470;-69
2021/07/06 08:18:52;;;;;;;15.20;14.40;;;20.50;99.90;;;;;;5023103;28;21086;-69
2021/07/06 08:21:20;;;;;;;15.83;14.53;;;20.60;99.90;;;;;;5016291;28;20831;-69
2021/07/06 08:23:47;;;;;;;15.67;14.47;;;20.70;99.90;;;;;;5013757;28;20458;-68
2021/07/06 08:26:16;;;;;;;16.57;15.10;;;21.00;99.90;;;;;;5020984;28;20461;-69
2021/07/06 08:28:45;;;;;;;25.53;15.13;;;21.10;99.90;;;;;;5012828;28;20469;-70
2021/07/06 08:31:13;;;;;;;16.53;15.00;;;21.40;99.90;;;;;;5022159;28;20488;-70
2021/07/06 08:33:40;;;;;;;16.17;14.77;;;21.50;99.90;;;;;;5018106;28;20467;-68
2021/07/06 08:36:07;;;;;;;15.70;14.50;;;21.70;99.90;;;;;;5020038;28;20467;-71
2021/07/06 08:38:36;;;;;;;14.47;13.60;;;21.80;99.90;;;;;;5019466;28;20465;-68
2021/07/06 08:41:03;;;;;;;14.90;13.90;;;22.00;99.90;;;;;;5021035;28;20491;-68
2021/07/06 08:43:30;;;;;;;14.80;14.00;;;22.40;99.90;;;;;;5015851;28;20835;-69
2021/07/06 08:45:59;;;;;;;14.87;14.00;;;22.60;99.90;;;;;;5025875;28;20468;-71
2021/07/06 08:48:31;;;;;;;14.70;13.80;;;22.80;99.90;;;;;;5023547;28;20470;-70
2021/07/06 08:51:00;;;;;;;15.17;14.47;;;23.00;99.90;;;;;;5025382;28;20484;-68
2021/07/06 08:53:28;;;;;;;15.60;14.40;;;23.20;99.90;;;;;;5022917;28;20819;-71
2021/07/06 08:55:56;;;;;;;15.27;14.37;;;23.30;99.90;;;;;;5023715;28;20472;-71
2021/07/06 08:58:23;;;;;;;15.70;14.60;;;23.40;99.90;;;;;;5024578;28;20461;-68
2021/07/06 09:00:50;;;;;;;15.10;14.10;;;23.40;99.90;;;;;;5020966;28;20963;-69
2021/07/06 09:03:17;;;;;;;14.37;13.67;;;23.70;99.90;;;;;;5026937;28;20473;-68
2021/07/06 09:05:45;;;;;;;14.60;13.90;;;23.80;99.90;;;;;;5026316;28;20555;-68
2021/07/06 09:08:17;;;;;;;14.80;14.10;;;23.80;99.90;;;;;;5023396;28;20464;-68
2021/07/06 09:10:44;;;;;;;15.50;14.60;;;23.30;99.90;;;;;;5022181;28;20518;-69
2021/07/06 09:13:26;;;;;;;14.23;13.60;;;23.30;99.90;;;;;;5026889;28;20468;-68
2021/07/06 09:15:54;;;;;;;14.20;13.60;;;23.00;99.90;;;;;;5024333;28;20477;-69
2021/07/06 09:18:22;;;;;;;14.77;14.07;;;23.10;99.90;;;;;;5025539;28;20570;-69
2021/07/06 09:21:05;;;;;;;14.23;13.63;;;22.90;99.90;;;;;;5022458;28;20496;-68
2021/07/06 09:23:34;;;;;;;14.33;13.60;;;22.70;99.90;;;;;;5020204;28;20873;-69
2021/07/06 09:26:29;;;;;;;14.70;14.00;;;22.60;99.90;;;;;;5016983;28;21053;-70
2021/07/06 09:28:58;;;;;;;14.50;13.90;;;22.70;99.90;;;;;;5014159;28;20461;-69
2021/07/06 09:31:31;;;;;;;15.00;14.30;;;23.10;99.90;;;;;;5018934;28;20583;-69
2021/07/06 09:34:02;;;;;;;14.57;13.87;;;23.20;99.90;;;;;;5018790;28;20960;-69
2021/07/06 09:36:34;;;;;;;14.90;13.97;;;22.80;99.90;;;;;;5025939;28;20460;-70
2021/07/06 09:39:04;;;;;;;14.60;13.90;;;22.90;99.90;;;;;;5022767;28;20456;-72
2021/07/06 09:41:31;;;;;;;14.77;14.10;;;23.00;99.90;;;;;;5016177;28;20469;-68
2021/07/06 09:44:15;;;;;;;15.80;14.60;;;22.70;99.90;;;;;;5024167;28;20465;-69
2021/07/06 09:46:47;;;;;;;15.23;14.00;;;22.80;99.90;;;;;;5021423;28;20749;-70
2021/07/06 09:49:16;;;;;;;14.73;14.03;;;23.00;99.90;;;;;;5019689;28;20473;-70
2021/07/06 09:51:44;;;;;;;15.07;14.27;;;23.00;99.90;;;;;;5020074;28;20580;-72
2021/07/06 09:54:11;;;;;;;14.30;13.70;;;23.00;99.90;;;;;;5020811;28;20461;-69
2021/07/06 09:56:42;;;;;;;14.80;14.00;;;23.30;99.90;;;;;;5024137;28;20495;-68
2021/07/06 09:59:15;;;;;;;14.60;13.70;;;24.10;99.90;;;;;;5021967;28;20473;-72
2021/07/06 10:01:54;;;;;;;14.63;14.03;;;24.30;99.90;;;;;;5021619;28;20457;-69
2021/07/06 10:04:23;;;;;;;15.03;14.13;;;24.20;99.90;;;;;;5025202;28;20468;-72
2021/07/06 10:06:53;;;;;;;15.40;14.70;;;24.30;99.90;;;;;;5023314;28;20556;-68
2021/07/06 10:09:20;;;;;;;14.83;14.13;;;25.20;99.90;;;;;;5021337;28;20503;-69
2021/07/06 10:11:48;;;;;;;14.73;13.87;;;25.30;99.90;;;;;;5018028;28;20474;-73
2021/07/06 10:14:16;;;;;;;14.43;13.77;;;25.50;99.90;;;;;;5020733;28;20465;-70
2021/07/06 10:16:43;;;;;;;14.70;13.90;;;25.40;99.90;;;;;;5021260;28;20466;-69
2021/07/06 10:19:12;;;;;;;14.60;13.80;;;25.10;99.90;;;;;;5021531;28;20974;-68
2021/07/06 10:21:40;;;;;;;14.27;13.67;;;25.20;99.90;;;;;;5018306;28;20465;-69
2021/07/06 10:24:09;;;;;;;15.50;14.23;;;25.30;99.90;;;;;;5020327;28;20486;-71
2021/07/06 10:26:40;;;;;;;14.50;13.90;;;25.60;99.90;;;;;;5018171;28;20476;-72
2021/07/06 10:29:08;;;;;;;14.73;14.03;;;25.90;99.90;;;;;;5019437;28;20556;-70
2021/07/06 10:31:43;;;;;;;14.13;13.40;;;25.60;99.90;;;;;;5018878;28;20591;-69
2021/07/06 10:34:21;;;;;;;14.07;13.37;;;25.60;99.90;;;;;;5019758;28;20461;-71
2021/07/06 10:36:48;;;;;;;14.77;13.87;;;25.70;99.90;;;;;;5017571;28;20476;-70
2021/07/06 10:39:18;;;;;;;14.50;13.90;;;26.50;99.90;;;;;;5023982;28;20476;-70
2021/07/06 10:41:57;;;;;;;14.97;14.17;;;27.20;99.90;;;;;;5018063;28;20524;-71
2021/07/06 10:44:34;;;;;;;14.63;13.93;;;27.60;99.90;;;;;;5022372;28;20461;-70
2021/07/06 10:47:02;;;;;;;15.20;13.87;;;26.10;99.90;;;;;;5020204;28;20465;-71
2021/07/06 10:49:34;;;;;;;14.57;13.77;;;25.70;99.90;;;;;;5019008;28;21268;-70
2021/07/06 10:52:05;;;;;;;14.50;13.80;;;26.20;99.90;;;;;;5026874;28;20559;-74
2021/07/06 10:54:40;;;;;;;14.50;13.60;;;26.90;99.90;;;;;;5021801;28;20947;-70
2021/07/06 10:57:27;;;;;;;14.80;14.10;;;26.80;99.90;;;;;;5014860;28;20490;-72
2021/07/06 10:59:59;;;;;;;14.77;13.87;;;26.70;99.90;;;;;;5015659;28;20465;-69
2021/07/06 11:02:31;;;;;;;14.13;13.33;;;26.30;99.90;;;;;;5022331;28;20452;-71
2021/07/06 11:05:02;;;;;;;14.53;13.70;;;26.20;99.90;;;;;;5019949;28;20544;-69
2021/07/06 11:07:57;;;;;;;15.53;14.33;;;25.70;99.90;;;;;;5022816;28;20880;-71
2021/07/06 11:10:46;;;;;;;13.90;13.30;;;25.30;99.90;;;;;;5016739;28;20473;-69
2021/07/06 11:13:35;;;;;;;14.40;13.50;;;25.60;99.90;;;;;;5027350;28;20581;-69
2021/07/06 11:16:04;;;;;;;14.67;13.70;;;26.00;99.90;;;;;;5019166;28;20822;-69
2021/07/06 11:18:36;;;;;;;14.63;13.83;;;26.20;99.90;;;;;;5023270;28;20546;-68
2021/07/06 11:21:04;;;;;;;14.83;13.77;;;26.80;99.90;;;;;;5018759;28;20460;-68
2021/07/06 11:23:33;;;;;;;14.47;13.50;;;26.70;99.90;;;;;;5022884;28;20464;-68
2021/07/06 11:26:06;;;;;;;14.50;13.67;;;26.70;99.90;;;;;;5021676;28;20449;-68
2021/07/06 11:28:49;;;;;;;14.90;14.00;;;27.20;99.90;;;;;;5024563;28;20465;-70
2021/07/06 11:31:18;;;;;;;14.10;13.50;;;28.40;99.90;;;;;;5022319;28;20885;-68
2021/07/06 11:33:45;;;;;;;14.10;13.50;;;28.90;99.90;;;;;;5020058;28;20460;-69
2021/07/06 11:36:19;;;;;;;14.60;13.93;;;29.20;99.70;;;;;;5023968;28;20470;-68
2021/07/06 11:38:47;;;;;;;14.60;13.90;;;29.10;96.80;;;;;;5022052;28;20472;-68
2021/07/06 11:41:17;;;;;;;15.70;14.90;;;28.80;96.80;;;;;;5021030;28;20567;-69
2021/07/06 11:43:45;;;;;;;14.93;14.23;;;28.40;97.20;;;;;;5020000;28;20446;-71
2021/07/06 11:46:14;;;;;;;15.10;14.40;;;27.40;98.30;;;;;;5021922;28;20473;-69
2021/07/06 11:48:43;;;;;;;14.27;13.47;;;27.00;99.70;;;;;;5016081;28;21157;-69
2021/07/06 11:51:11;;;;;;;14.63;13.83;;;27.20;97.50;;;;;;5020947;28;20468;-68
2021/07/06 11:53:40;;;;;;;13.97;13.30;;;26.10;99.20;;;;;;5020439;28;20467;-68
2021/07/06 11:56:09;;;;;;;14.13;13.20;;;26.60;99.90;;;;;;5019221;28;20483;-70
2021/07/06 11:58:38;;;;;;;14.67;13.60;;;27.50;98.50;;;;;;5026178;28;20468;-69
2021/07/06 12:01:08;;;;;;;15.00;13.93;;;28.40;96.80;;;;;;5021607;28;20461;-67
2021/07/06 12:03:36;;;;;;;15.10;14.10;;;28.30;96.10;;;;;;5021115;28;20461;-68
2021/07/06 12:06:06;;;;;;;13.90;13.20;;;27.60;97.10;;;;;;5022720;28;20479;-70
2021/07/06 12:08:35;;;;;;;15.10;13.73;;;28.00;96.50;;;;;;5022852;28;20472;-70
2021/07/06 12:11:05;;;;;;;14.83;13.80;;;27.60;96.10;;;;;;5021218;28;20457;-72
2021/07/06 12:13:34;;;;;;;14.27;13.47;;;27.40;97.90;;;;;;5020223;28;20832;-70
2021/07/06 12:16:06;;;;;;;15.17;14.10;;;28.20;96.30;;;;;;5024759;28;20469;-71
2021/07/06 12:18:35;;;;;;;14.40;13.50;;;29.00;95.90;;;;;;5029239;28;20461;-69
2021/07/06 12:21:05;;;;;;;13.83;13.00;;;29.20;94.80;;;;;;5026351;28;20919;-69
2021/07/06 12:23:33;;;;;;;14.57;13.87;;;28.40;93.90;;;;;;5023266;28;21002;-69
2021/07/06 12:26:00;;;;;;;14.27;13.30;;;28.40;95.10;;;;;;5025529;28;20885;-71
2021/07/06 12:28:28;;;;;;;14.53;13.73;;;27.70;94.80;;;;;;5027366;28;20842;-72
2021/07/06 12:31:23;;;;;;;14.40;13.50;;;27.40;96.30;;;;;;5023562;28;20834;-69
2021/07/06 12:34:06;;;;;;;14.30;13.50;;;26.60;97.50;;;;;;5022029;28;20943;-69
2021/07/06 12:36:35;;;;;;;14.70;13.90;;;26.40;97.20;;;;;;5027213;28;20949;-70